KPKB/PKB METAR and TAF weather

Enter ICAO airport designator
Station Type Date Time Source
KPKB METAR 2020/01/23 14:53 UTC NOAA

KPKB 231453Z 09003KT 10SM CLR M01/M04 A3026 RMK AO2 SLP257 T10061044 50003


Station Type Date Time Source
KPKB Decoded METAR 2020/01/23 14:53 UTC NOAA

MID-OHIO VALLEY RGNL AIRPORT, WV, United States (KPKB) 39-20N 81-27W
Jan 23, 2020 - 09:53 AM EST / 2020.01.23 1453 UTC
Wind: from the E (090 degrees) at 3 MPH (3 KT):0
Visibility: 10 mile(s):0
Sky conditions: clear
Temperature: 30.9 F (-0.6 C)
Dew Point: 24.1 F (-4.4 C)
Relative Humidity: 75%
Pressure (altimeter): 30.26 in. Hg (1024 hPa)
Pressure tendency: 0.01 inches (0.3 hPa) higher than three hours ago
ob: KPKB 231453Z 09003KT 10SM CLR M01/M04 A3026 RMK AO2 SLP257 T10061044 50003
cycle: 15

Station Type Date Time Source
KPKB TAF 2020/01/23 15:34 UTC NOAA

TAF
AMD KPKB 231432Z 2315/2412 00000KT P6SM OVC180
FM232300 00000KT P6SM OVC100
FM241100 00000KT P6SM OVC100 WS020/17035KT

Example: see airport list